Search for airport 
image banner adimage banner adimage banner ad
image banner ad

99CA - San Antonio Rgnl Hospital

Located in Upland, United States

ICAO - 99CA, IATA -

Data provided by Airmate  

General information

Coordinates: N34°6'10" W117°38'10"
Elevation is 1274 feet MSL.
 
View others Airports in California

Operational data

Special qualification required
Current time UTC:
Current local time:
Weather at : KCCB - Cable ( 5 km )
METAR: KCCB 150815Z AUTO 07004KT 10SM 24/11 A2991 RMK AO2
View NOTAMs / SUP AIP / TFR affecting this airport [VIEW]
Communications frequencies: [VIEW]

Runways:

Airport contact information

Address: Upland United States

Satellite view of 99CA